sensor_id;sensor_type;location;lat;lon;timestamp;P1;durP1;ratioP1;P2;durP2;ratioP2
53439;SDS011;39333;47.044;15.080;2022-09-09T00:04:27;189.30;;;181.27;;
53439;SDS011;39333;47.044;15.080;2022-09-09T00:12:37;194.95;;;186.02;;
53439;SDS011;39333;47.044;15.080;2022-09-09T00:15:19;190.00;;;181.52;;
53439;SDS011;39333;47.044;15.080;2022-09-09T00:17:53;194.63;;;186.07;;
53439;SDS011;39333;47.044;15.080;2022-09-09T00:20:38;184.75;;;177.00;;
53439;SDS011;39333;47.044;15.080;2022-09-09T00:26:02;184.50;;;176.45;;
53439;SDS011;39333;47.044;15.080;2022-09-09T00:28:50;183.25;;;175.35;;
53439;SDS011;39333;47.044;15.080;2022-09-09T00:31:31;185.35;;;177.38;;
53439;SDS011;39333;47.044;15.080;2022-09-09T00:34:00;185.23;;;176.77;;
53439;SDS011;39333;47.044;15.080;2022-09-09T00:36:40;182.93;;;174.35;;
53439;SDS011;39333;47.044;15.080;2022-09-09T00:39:09;196.93;;;187.45;;
53439;SDS011;39333;47.044;15.080;2022-09-09T00:44:53;188.55;;;180.55;;
53439;SDS011;39333;47.044;15.080;2022-09-09T00:50:17;185.43;;;177.18;;
53439;SDS011;39333;47.044;15.080;2022-09-09T00:55:48;183.88;;;175.73;;
53439;SDS011;39333;47.044;15.080;2022-09-09T00:58:15;178.55;;;170.98;;
53439;SDS011;39333;47.044;15.080;2022-09-09T01:00:52;185.65;;;177.63;;
53439;SDS011;39333;47.044;15.080;2022-09-09T01:03:40;177.30;;;169.30;;
53439;SDS011;39333;47.044;15.080;2022-09-09T01:08:42;180.02;;;172.23;;
53439;SDS011;39333;47.044;15.080;2022-09-09T01:11:24;191.50;;;183.38;;
53439;SDS011;39333;47.044;15.080;2022-09-09T01:16:58;183.93;;;176.07;;
53439;SDS011;39333;47.044;15.080;2022-09-09T01:22:26;179.80;;;171.88;;
53439;SDS011;39333;47.044;15.080;2022-09-09T01:28:17;178.23;;;170.60;;
53439;SDS011;39333;47.044;15.080;2022-09-09T01:30:50;178.18;;;170.70;;
53439;SDS011;39333;47.044;15.080;2022-09-09T01:33:20;181.50;;;173.75;;
53439;SDS011;39333;47.044;15.080;2022-09-09T01:38:28;177.68;;;169.70;;
53439;SDS011;39333;47.044;15.080;2022-09-09T01:40:56;181.23;;;173.35;;
53439;SDS011;39333;47.044;15.080;2022-09-09T01:43:33;192.77;;;183.98;;
53439;SDS011;39333;47.044;15.080;2022-09-09T01:46:01;177.25;;;169.40;;
53439;SDS011;39333;47.044;15.080;2022-09-09T01:48:30;176.80;;;169.00;;
53439;SDS011;39333;47.044;15.080;2022-09-09T01:51:08;178.10;;;170.32;;
53439;SDS011;39333;47.044;15.080;2022-09-09T01:53:37;173.77;;;165.98;;
53439;SDS011;39333;47.044;15.080;2022-09-09T01:56:18;180.10;;;171.80;;
53439;SDS011;39333;47.044;15.080;2022-09-09T02:01:46;175.73;;;168.15;;
53439;SDS011;39333;47.044;15.080;2022-09-09T02:06:56;181.23;;;173.57;;
53439;SDS011;39333;47.044;15.080;2022-09-09T02:09:27;182.90;;;174.85;;
53439;SDS011;39333;47.044;15.080;2022-09-09T02:12:05;182.30;;;173.93;;
53439;SDS011;39333;47.044;15.080;2022-09-09T02:14:49;187.27;;;178.93;;
53439;SDS011;39333;47.044;15.080;2022-09-09T02:17:27;172.23;;;164.98;;
53439;SDS011;39333;47.044;15.080;2022-09-09T02:20:10;172.68;;;165.38;;
53439;SDS011;39333;47.044;15.080;2022-09-09T02:22:44;182.55;;;175.07;;
53439;SDS011;39333;47.044;15.080;2022-09-09T02:25:15;176.50;;;169.10;;
53439;SDS011;39333;47.044;15.080;2022-09-09T02:27:46;188.52;;;180.13;;
53439;SDS011;39333;47.044;15.080;2022-09-09T02:30:16;173.57;;;166.43;;
53439;SDS011;39333;47.044;15.080;2022-09-09T02:32:50;182.02;;;173.90;;
53439;SDS011;39333;47.044;15.080;2022-09-09T02:35:34;178.57;;;170.90;;
53439;SDS011;39333;47.044;15.080;2022-09-09T02:38:06;174.18;;;166.95;;
53439;SDS011;39333;47.044;15.080;2022-09-09T02:40:39;176.85;;;168.95;;
53439;SDS011;39333;47.044;15.080;2022-09-09T02:43:05;187.93;;;179.85;;
53439;SDS011;39333;47.044;15.080;2022-09-09T02:45:47;176.13;;;169.02;;
53439;SDS011;39333;47.044;15.080;2022-09-09T02:48:24;179.68;;;172.13;;
53439;SDS011;39333;47.044;15.080;2022-09-09T02:51:08;178.38;;;170.85;;
53439;SDS011;39333;47.044;15.080;2022-09-09T02:53:49;179.18;;;171.50;;
53439;SDS011;39333;47.044;15.080;2022-09-09T02:56:29;180.85;;;173.02;;
53439;SDS011;39333;47.044;15.080;2022-09-09T02:59:04;185.57;;;176.60;;
53439;SDS011;39333;47.044;15.080;2022-09-09T03:01:34;176.95;;;169.52;;
53439;SDS011;39333;47.044;15.080;2022-09-09T03:04:02;176.95;;;169.57;;
53439;SDS011;39333;47.044;15.080;2022-09-09T03:06:32;179.25;;;171.65;;
53439;SDS011;39333;47.044;15.080;2022-09-09T03:09:08;189.30;;;179.65;;
53439;SDS011;39333;47.044;15.080;2022-09-09T03:11:37;176.05;;;168.50;;
53439;SDS011;39333;47.044;15.080;2022-09-09T03:14:06;167.95;;;161.18;;
53439;SDS011;39333;47.044;15.080;2022-09-09T03:16:35;177.75;;;170.25;;
53439;SDS011;39333;47.044;15.080;2022-09-09T03:19:02;179.88;;;171.02;;
53439;SDS011;39333;47.044;15.080;2022-09-09T03:21:29;171.75;;;164.40;;
53439;SDS011;39333;47.044;15.080;2022-09-09T03:23:56;173.02;;;165.93;;
53439;SDS011;39333;47.044;15.080;2022-09-09T03:26:23;171.65;;;164.38;;
53439;SDS011;39333;47.044;15.080;2022-09-09T03:28:50;173.77;;;166.10;;
53439;SDS011;39333;47.044;15.080;2022-09-09T03:31:20;176.10;;;168.90;;
53439;SDS011;39333;47.044;15.080;2022-09-09T03:33:47;175.60;;;168.13;;
53439;SDS011;39333;47.044;15.080;2022-09-09T03:36:15;179.98;;;172.25;;
53439;SDS011;39333;47.044;15.080;2022-09-09T03:38:42;183.27;;;175.52;;
53439;SDS011;39333;47.044;15.080;2022-09-09T03:41:09;169.57;;;162.68;;
53439;SDS011;39333;47.044;15.080;2022-09-09T03:43:38;171.77;;;164.48;;
53439;SDS011;39333;47.044;15.080;2022-09-09T03:46:05;167.23;;;159.95;;
53439;SDS011;39333;47.044;15.080;2022-09-09T03:48:32;172.90;;;165.57;;
53439;SDS011;39333;47.044;15.080;2022-09-09T03:50:59;173.25;;;165.93;;
53439;SDS011;39333;47.044;15.080;2022-09-09T03:53:30;175.75;;;168.30;;
53439;SDS011;39333;47.044;15.080;2022-09-09T03:55:57;181.10;;;173.15;;
53439;SDS011;39333;47.044;15.080;2022-09-09T03:58:27;179.73;;;171.68;;
53439;SDS011;39333;47.044;15.080;2022-09-09T04:01:07;177.13;;;169.73;;
53439;SDS011;39333;47.044;15.080;2022-09-09T04:03:37;167.52;;;160.85;;
53439;SDS011;39333;47.044;15.080;2022-09-09T04:06:04;179.32;;;171.25;;
53439;SDS011;39333;47.044;15.080;2022-09-09T04:08:33;171.43;;;164.05;;
53439;SDS011;39333;47.044;15.080;2022-09-09T04:11:02;180.73;;;172.70;;
53439;SDS011;39333;47.044;15.080;2022-09-09T04:13:32;176.02;;;168.27;;
53439;SDS011;39333;47.044;15.080;2022-09-09T04:16:01;172.43;;;164.50;;
53439;SDS011;39333;47.044;15.080;2022-09-09T04:18:30;168.65;;;161.27;;
53439;SDS011;39333;47.044;15.080;2022-09-09T04:20:59;167.05;;;159.95;;
53439;SDS011;39333;47.044;15.080;2022-09-09T04:23:29;171.05;;;163.80;;
53439;SDS011;39333;47.044;15.080;2022-09-09T04:25:57;177.10;;;169.27;;
53439;SDS011;39333;47.044;15.080;2022-09-09T04:28:27;171.77;;;164.20;;
53439;SDS011;39333;47.044;15.080;2022-09-09T04:30:56;188.25;;;178.73;;
53439;SDS011;39333;47.044;15.080;2022-09-09T04:33:24;174.93;;;167.32;;
53439;SDS011;39333;47.044;15.080;2022-09-09T04:35:54;173.52;;;165.68;;
53439;SDS011;39333;47.044;15.080;2022-09-09T04:38:23;170.85;;;163.10;;
53439;SDS011;39333;47.044;15.080;2022-09-09T04:40:50;175.10;;;167.75;;
53439;SDS011;39333;47.044;15.080;2022-09-09T04:43:18;174.23;;;166.90;;
53439;SDS011;39333;47.044;15.080;2022-09-09T04:45:49;178.70;;;171.18;;
53439;SDS011;39333;47.044;15.080;2022-09-09T04:48:20;167.88;;;160.27;;
53439;SDS011;39333;47.044;15.080;2022-09-09T04:50:58;172.65;;;165.38;;
53439;SDS011;39333;47.044;15.080;2022-09-09T04:53:29;172.73;;;165.23;;
53439;SDS011;39333;47.044;15.080;2022-09-09T04:58:35;171.13;;;163.95;;
53439;SDS011;39333;47.044;15.080;2022-09-09T05:01:08;176.90;;;169.15;;
53439;SDS011;39333;47.044;15.080;2022-09-09T05:03:38;178.75;;;170.65;;
53439;SDS011;39333;47.044;15.080;2022-09-09T05:06:08;175.65;;;167.73;;
53439;SDS011;39333;47.044;15.080;2022-09-09T05:08:37;172.43;;;164.95;;
53439;SDS011;39333;47.044;15.080;2022-09-09T05:13:56;180.05;;;171.88;;
53439;SDS011;39333;47.044;15.080;2022-09-09T05:16:23;174.23;;;166.35;;
53439;SDS011;39333;47.044;15.080;2022-09-09T05:18:50;175.02;;;167.45;;
53439;SDS011;39333;47.044;15.080;2022-09-09T05:21:21;169.25;;;162.10;;
53439;SDS011;39333;47.044;15.080;2022-09-09T05:23:49;170.38;;;163.05;;
53439;SDS011;39333;47.044;15.080;2022-09-09T05:26:19;176.82;;;168.75;;
53439;SDS011;39333;47.044;15.080;2022-09-09T05:28:50;176.60;;;168.38;;
53439;SDS011;39333;47.044;15.080;2022-09-09T05:31:17;168.90;;;162.10;;
53439;SDS011;39333;47.044;15.080;2022-09-09T05:33:48;169.32;;;162.15;;
53439;SDS011;39333;47.044;15.080;2022-09-09T05:36:17;172.00;;;164.25;;
53439;SDS011;39333;47.044;15.080;2022-09-09T05:38:47;171.07;;;163.43;;
53439;SDS011;39333;47.044;15.080;2022-09-09T05:41:14;171.70;;;163.93;;
53439;SDS011;39333;47.044;15.080;2022-09-09T05:43:45;173.43;;;165.63;;
53439;SDS011;39333;47.044;15.080;2022-09-09T05:46:16;179.65;;;171.52;;
53439;SDS011;39333;47.044;15.080;2022-09-09T05:48:46;172.70;;;165.32;;
53439;SDS011;39333;47.044;15.080;2022-09-09T05:51:15;181.07;;;172.93;;
53439;SDS011;39333;47.044;15.080;2022-09-09T05:53:48;175.05;;;167.52;;
53439;SDS011;39333;47.044;15.080;2022-09-09T05:56:16;176.10;;;168.13;;
53439;SDS011;39333;47.044;15.080;2022-09-09T05:58:44;180.98;;;173.00;;
53439;SDS011;39333;47.044;15.080;2022-09-09T06:01:14;175.20;;;167.77;;
53439;SDS011;39333;47.044;15.080;2022-09-09T06:03:45;171.50;;;163.60;;
53439;SDS011;39333;47.044;15.080;2022-09-09T06:06:14;172.95;;;165.43;;
53439;SDS011;39333;47.044;15.080;2022-09-09T06:08:44;166.00;;;159.10;;
53439;SDS011;39333;47.044;15.080;2022-09-09T06:11:15;170.60;;;162.98;;
53439;SDS011;39333;47.044;15.080;2022-09-09T06:13:44;182.43;;;174.20;;
53439;SDS011;39333;47.044;15.080;2022-09-09T06:16:13;175.90;;;168.55;;
53439;SDS011;39333;47.044;15.080;2022-09-09T06:18:42;170.10;;;162.75;;
53439;SDS011;39333;47.044;15.080;2022-09-09T06:21:17;178.13;;;170.80;;
53439;SDS011;39333;47.044;15.080;2022-09-09T06:23:46;182.98;;;174.98;;
53439;SDS011;39333;47.044;15.080;2022-09-09T06:26:15;176.07;;;168.38;;
53439;SDS011;39333;47.044;15.080;2022-09-09T06:28:49;176.23;;;168.73;;
53439;SDS011;39333;47.044;15.080;2022-09-09T06:31:20;165.77;;;158.77;;
53439;SDS011;39333;47.044;15.080;2022-09-09T06:33:56;178.18;;;170.27;;
53439;SDS011;39333;47.044;15.080;2022-09-09T06:36:25;168.63;;;161.23;;
53439;SDS011;39333;47.044;15.080;2022-09-09T06:38:54;171.65;;;163.98;;
53439;SDS011;39333;47.044;15.080;2022-09-09T06:41:23;166.70;;;159.75;;
53439;SDS011;39333;47.044;15.080;2022-09-09T06:43:53;167.32;;;160.38;;
53439;SDS011;39333;47.044;15.080;2022-09-09T06:46:29;170.57;;;163.40;;
53439;SDS011;39333;47.044;15.080;2022-09-09T06:48:59;175.10;;;166.73;;
53439;SDS011;39333;47.044;15.080;2022-09-09T06:51:30;176.13;;;168.63;;
53439;SDS011;39333;47.044;15.080;2022-09-09T06:54:01;169.20;;;162.20;;
53439;SDS011;39333;47.044;15.080;2022-09-09T06:56:37;171.23;;;163.70;;
53439;SDS011;39333;47.044;15.080;2022-09-09T06:59:13;169.20;;;161.95;;
53439;SDS011;39333;47.044;15.080;2022-09-09T07:01:41;174.48;;;166.85;;
53439;SDS011;39333;47.044;15.080;2022-09-09T07:04:12;175.20;;;167.57;;
53439;SDS011;39333;47.044;15.080;2022-09-09T07:06:43;172.27;;;164.75;;
53439;SDS011;39333;47.044;15.080;2022-09-09T07:09:16;175.45;;;167.82;;
53439;SDS011;39333;47.044;15.080;2022-09-09T07:11:47;182.05;;;174.55;;
53439;SDS011;39333;47.044;15.080;2022-09-09T07:14:18;169.90;;;162.40;;
53439;SDS011;39333;47.044;15.080;2022-09-09T07:16:50;181.25;;;173.00;;
53439;SDS011;39333;47.044;15.080;2022-09-09T07:19:20;176.27;;;168.68;;
53439;SDS011;39333;47.044;15.080;2022-09-09T07:21:50;177.45;;;169.88;;
53439;SDS011;39333;47.044;15.080;2022-09-09T07:24:19;173.30;;;166.27;;
53439;SDS011;39333;47.044;15.080;2022-09-09T07:26:47;175.68;;;167.98;;
53439;SDS011;39333;47.044;15.080;2022-09-09T07:29:15;182.07;;;173.68;;
53439;SDS011;39333;47.044;15.080;2022-09-09T07:31:46;184.32;;;176.40;;
53439;SDS011;39333;47.044;15.080;2022-09-09T07:34:18;173.43;;;166.00;;
53439;SDS011;39333;47.044;15.080;2022-09-09T07:36:45;170.75;;;163.45;;
53439;SDS011;39333;47.044;15.080;2022-09-09T07:39:13;174.25;;;166.30;;
53439;SDS011;39333;47.044;15.080;2022-09-09T07:41:47;175.05;;;167.32;;
53439;SDS011;39333;47.044;15.080;2022-09-09T07:44:19;172.93;;;165.65;;
53439;SDS011;39333;47.044;15.080;2022-09-09T07:47:07;169.93;;;162.73;;
53439;SDS011;39333;47.044;15.080;2022-09-09T07:49:40;172.70;;;165.52;;
53439;SDS011;39333;47.044;15.080;2022-09-09T07:52:08;181.35;;;173.65;;
53439;SDS011;39333;47.044;15.080;2022-09-09T07:54:37;182.65;;;174.70;;
53439;SDS011;39333;47.044;15.080;2022-09-09T07:57:05;170.68;;;163.38;;
53439;SDS011;39333;47.044;15.080;2022-09-09T07:59:34;177.55;;;170.05;;
53439;SDS011;39333;47.044;15.080;2022-09-09T08:02:02;171.18;;;163.85;;
53439;SDS011;39333;47.044;15.080;2022-09-09T08:04:31;169.10;;;161.98;;
53439;SDS011;39333;47.044;15.080;2022-09-09T08:06:59;173.85;;;166.18;;
53439;SDS011;39333;47.044;15.080;2022-09-09T08:09:30;176.02;;;168.70;;
53439;SDS011;39333;47.044;15.080;2022-09-09T08:12:18;179.60;;;171.85;;
53439;SDS011;39333;47.044;15.080;2022-09-09T08:14:45;168.40;;;161.18;;
53439;SDS011;39333;47.044;15.080;2022-09-09T08:17:14;170.38;;;163.05;;
53439;SDS011;39333;47.044;15.080;2022-09-09T08:19:42;177.93;;;169.85;;
53439;SDS011;39333;47.044;15.080;2022-09-09T08:22:15;173.15;;;165.85;;
53439;SDS011;39333;47.044;15.080;2022-09-09T08:24:43;178.90;;;171.52;;
53439;SDS011;39333;47.044;15.080;2022-09-09T08:27:11;173.45;;;166.02;;
53439;SDS011;39333;47.044;15.080;2022-09-09T08:29:38;172.52;;;165.10;;
53439;SDS011;39333;47.044;15.080;2022-09-09T08:32:05;175.43;;;167.73;;
53439;SDS011;39333;47.044;15.080;2022-09-09T08:34:33;177.68;;;170.07;;
53439;SDS011;39333;47.044;15.080;2022-09-09T08:37:05;170.10;;;162.70;;
53439;SDS011;39333;47.044;15.080;2022-09-09T08:39:36;167.48;;;160.48;;
53439;SDS011;39333;47.044;15.080;2022-09-09T08:58:46;174.88;;;167.07;;
53439;SDS011;39333;47.044;15.080;2022-09-09T09:01:30;174.93;;;167.20;;
53439;SDS011;39333;47.044;15.080;2022-09-09T09:04:05;170.88;;;163.27;;
53439;SDS011;39333;47.044;15.080;2022-09-09T09:11:56;167.73;;;160.80;;
53439;SDS011;39333;47.044;15.080;2022-09-09T09:14:34;175.57;;;168.32;;
53439;SDS011;39333;47.044;15.080;2022-09-09T09:17:09;179.55;;;172.00;;
53439;SDS011;39333;47.044;15.080;2022-09-09T09:19:43;173.10;;;165.73;;
53439;SDS011;39333;47.044;15.080;2022-09-09T09:24:57;168.60;;;161.82;;
53439;SDS011;39333;47.044;15.080;2022-09-09T09:30:12;165.57;;;158.88;;
53439;SDS011;39333;47.044;15.080;2022-09-09T09:35:49;174.98;;;167.00;;
53439;SDS011;39333;47.044;15.080;2022-09-09T09:38:22;169.52;;;162.43;;
53439;SDS011;39333;47.044;15.080;2022-09-09T09:41:11;173.13;;;166.15;;
53439;SDS011;39333;47.044;15.080;2022-09-09T09:43:39;173.57;;;165.50;;
53439;SDS011;39333;47.044;15.080;2022-09-09T09:46:22;172.00;;;164.93;;
53439;SDS011;39333;47.044;15.080;2022-09-09T09:48:56;173.52;;;165.88;;
53439;SDS011;39333;47.044;15.080;2022-09-09T09:51:25;168.40;;;161.45;;
53439;SDS011;39333;47.044;15.080;2022-09-09T09:53:54;170.02;;;162.35;;
53439;SDS011;39333;47.044;15.080;2022-09-09T09:56:37;168.00;;;160.63;;
53439;SDS011;39333;47.044;15.080;2022-09-09T09:59:04;184.27;;;175.38;;
53439;SDS011;39333;47.044;15.080;2022-09-09T10:01:49;177.68;;;169.85;;
53439;SDS011;39333;47.044;15.080;2022-09-09T10:04:19;182.88;;;175.15;;
53439;SDS011;39333;47.044;15.080;2022-09-09T10:06:55;193.00;;;184.25;;
53439;SDS011;39333;47.044;15.080;2022-09-09T10:37:15;193.93;;;185.50;;
53439;SDS011;39333;47.044;15.080;2022-09-09T10:39:56;196.98;;;186.93;;
53439;SDS011;39333;47.044;15.080;2022-09-09T10:42:46;196.60;;;187.95;;
53439;SDS011;39333;47.044;15.080;2022-09-09T10:45:15;210.18;;;200.07;;
53439;SDS011;39333;47.044;15.080;2022-09-09T10:56:13;194.55;;;186.13;;
53439;SDS011;39333;47.044;15.080;2022-09-09T11:02:01;204.15;;;195.27;;
53439;SDS011;39333;47.044;15.080;2022-09-09T11:04:40;203.70;;;194.50;;
53439;SDS011;39333;47.044;15.080;2022-09-09T11:07:13;198.93;;;189.85;;
53439;SDS011;39333;47.044;15.080;2022-09-09T11:09:53;204.55;;;195.18;;
53439;SDS011;39333;47.044;15.080;2022-09-09T11:12:25;195.82;;;186.95;;
53439;SDS011;39333;47.044;15.080;2022-09-09T11:15:06;198.98;;;190.13;;
53439;SDS011;39333;47.044;15.080;2022-09-09T11:17:48;203.25;;;193.98;;
53439;SDS011;39333;47.044;15.080;2022-09-09T11:20:20;209.20;;;199.98;;
53439;SDS011;39333;47.044;15.080;2022-09-09T11:25:24;204.80;;;194.93;;
53439;SDS011;39333;47.044;15.080;2022-09-09T11:28:05;208.77;;;198.98;;
53439;SDS011;39333;47.044;15.080;2022-09-09T11:39:14;204.15;;;194.00;;
53439;SDS011;39333;47.044;15.080;2022-09-09T11:44:53;201.77;;;193.00;;
53439;SDS011;39333;47.044;15.080;2022-09-09T11:47:22;212.00;;;202.18;;
53439;SDS011;39333;47.044;15.080;2022-09-09T11:52:43;211.23;;;201.00;;
53439;SDS011;39333;47.044;15.080;2022-09-09T11:57:59;201.65;;;192.48;;
53439;SDS011;39333;47.044;15.080;2022-09-09T12:02:59;207.18;;;197.88;;
53439;SDS011;39333;47.044;15.080;2022-09-09T12:05:39;209.20;;;199.60;;
53439;SDS011;39333;47.044;15.080;2022-09-09T12:08:09;212.27;;;201.90;;
53439;SDS011;39333;47.044;15.080;2022-09-09T12:10:52;202.98;;;193.50;;
53439;SDS011;39333;47.044;15.080;2022-09-09T12:13:24;206.52;;;197.32;;
53439;SDS011;39333;47.044;15.080;2022-09-09T12:15:56;213.20;;;202.93;;
53439;SDS011;39333;47.044;15.080;2022-09-09T12:32:24;211.30;;;201.60;;
53439;SDS011;39333;47.044;15.080;2022-09-09T12:34:53;208.30;;;198.82;;
53439;SDS011;39333;47.044;15.080;2022-09-09T12:37:44;203.32;;;194.07;;
53439;SDS011;39333;47.044;15.080;2022-09-09T12:42:52;216.52;;;206.48;;
53439;SDS011;39333;47.044;15.080;2022-09-09T12:45:20;212.23;;;202.15;;
53439;SDS011;39333;47.044;15.080;2022-09-09T12:47:50;219.80;;;209.23;;
53439;SDS011;39333;47.044;15.080;2022-09-09T12:50:21;208.25;;;198.70;;
53439;SDS011;39333;47.044;15.080;2022-09-09T12:52:53;211.75;;;201.88;;
53439;SDS011;39333;47.044;15.080;2022-09-09T12:55:27;211.48;;;201.48;;
53439;SDS011;39333;47.044;15.080;2022-09-09T12:57:56;226.63;;;214.10;;
53439;SDS011;39333;47.044;15.080;2022-09-09T13:00:26;213.93;;;203.98;;
53439;SDS011;39333;47.044;15.080;2022-09-09T13:02:54;212.40;;;202.43;;
53439;SDS011;39333;47.044;15.080;2022-09-09T13:05:26;212.63;;;203.32;;
53439;SDS011;39333;47.044;15.080;2022-09-09T13:08:10;211.63;;;201.43;;
53439;SDS011;39333;47.044;15.080;2022-09-09T13:11:00;211.45;;;201.38;;
53439;SDS011;39333;47.044;15.080;2022-09-09T13:13:35;211.32;;;201.32;;
53439;SDS011;39333;47.044;15.080;2022-09-09T13:16:04;206.95;;;197.27;;
53439;SDS011;39333;47.044;15.080;2022-09-09T13:18:35;207.65;;;198.07;;
53439;SDS011;39333;47.044;15.080;2022-09-09T13:21:04;214.70;;;204.73;;
53439;SDS011;39333;47.044;15.080;2022-09-09T13:23:35;211.38;;;201.45;;
53439;SDS011;39333;47.044;15.080;2022-09-09T13:26:20;205.77;;;195.85;;
53439;SDS011;39333;47.044;15.080;2022-09-09T13:28:49;217.27;;;206.73;;
53439;SDS011;39333;47.044;15.080;2022-09-09T13:31:29;208.50;;;199.05;;
53439;SDS011;39333;47.044;15.080;2022-09-09T13:33:59;213.98;;;203.65;;
53439;SDS011;39333;47.044;15.080;2022-09-09T13:36:36;213.05;;;203.35;;
53439;SDS011;39333;47.044;15.080;2022-09-09T13:39:03;221.10;;;209.25;;
53439;SDS011;39333;47.044;15.080;2022-09-09T13:41:34;213.00;;;203.18;;
53439;SDS011;39333;47.044;15.080;2022-09-09T13:44:02;209.93;;;199.98;;
53439;SDS011;39333;47.044;15.080;2022-09-09T13:46:39;218.13;;;207.57;;
53439;SDS011;39333;47.044;15.080;2022-09-09T13:51:43;209.52;;;200.13;;
53439;SDS011;39333;47.044;15.080;2022-09-09T13:54:15;215.77;;;205.65;;
53439;SDS011;39333;47.044;15.080;2022-09-09T13:56:44;211.27;;;201.45;;
53439;SDS011;39333;47.044;15.080;2022-09-09T13:59:12;214.98;;;203.82;;
53439;SDS011;39333;47.044;15.080;2022-09-09T14:01:40;214.95;;;204.25;;
53439;SDS011;39333;47.044;15.080;2022-09-09T14:04:08;215.15;;;204.93;;
53439;SDS011;39333;47.044;15.080;2022-09-09T14:06:35;210.20;;;200.55;;
53439;SDS011;39333;47.044;15.080;2022-09-09T14:09:05;219.55;;;207.98;;
53439;SDS011;39333;47.044;15.080;2022-09-09T14:11:32;219.13;;;208.57;;
53439;SDS011;39333;47.044;15.080;2022-09-09T14:13:59;208.02;;;198.38;;
53439;SDS011;39333;47.044;15.080;2022-09-09T14:16:28;211.57;;;201.63;;
53439;SDS011;39333;47.044;15.080;2022-09-09T14:18:55;211.98;;;201.75;;
53439;SDS011;39333;47.044;15.080;2022-09-09T14:21:25;212.88;;;202.98;;
53439;SDS011;39333;47.044;15.080;2022-09-09T14:23:53;207.23;;;198.02;;
53439;SDS011;39333;47.044;15.080;2022-09-09T14:26:20;216.60;;;206.05;;
53439;SDS011;39333;47.044;15.080;2022-09-09T14:28:48;224.50;;;210.98;;
53439;SDS011;39333;47.044;15.080;2022-09-09T14:31:21;216.50;;;206.77;;
53439;SDS011;39333;47.044;15.080;2022-09-09T14:33:51;208.20;;;198.85;;
53439;SDS011;39333;47.044;15.080;2022-09-09T14:36:19;216.73;;;206.73;;
53439;SDS011;39333;47.044;15.080;2022-09-09T14:38:46;222.82;;;211.60;;
53439;SDS011;39333;47.044;15.080;2022-09-09T14:41:14;215.80;;;205.30;;
53439;SDS011;39333;47.044;15.080;2022-09-09T14:43:49;214.93;;;205.00;;
53439;SDS011;39333;47.044;15.080;2022-09-09T14:46:17;204.30;;;195.02;;
53439;SDS011;39333;47.044;15.080;2022-09-09T14:48:45;215.63;;;205.45;;
53439;SDS011;39333;47.044;15.080;2022-09-09T14:51:15;209.82;;;200.52;;
53439;SDS011;39333;47.044;15.080;2022-09-09T14:53:45;218.80;;;208.50;;
53439;SDS011;39333;47.044;15.080;2022-09-09T14:56:19;211.20;;;200.85;;
53439;SDS011;39333;47.044;15.080;2022-09-09T14:58:49;212.73;;;202.43;;
53439;SDS011;39333;47.044;15.080;2022-09-09T15:01:18;211.27;;;202.05;;
53439;SDS011;39333;47.044;15.080;2022-09-09T15:03:50;210.88;;;201.38;;
53439;SDS011;39333;47.044;15.080;2022-09-09T15:06:20;210.65;;;201.25;;
53439;SDS011;39333;47.044;15.080;2022-09-09T15:08:49;213.93;;;203.85;;
53439;SDS011;39333;47.044;15.080;2022-09-09T15:11:17;216.25;;;205.60;;
53439;SDS011;39333;47.044;15.080;2022-09-09T15:13:44;221.57;;;208.65;;
53439;SDS011;39333;47.044;15.080;2022-09-09T15:16:15;210.02;;;200.57;;
53439;SDS011;39333;47.044;15.080;2022-09-09T15:18:43;216.55;;;206.70;;
53439;SDS011;39333;47.044;15.080;2022-09-09T15:21:11;211.77;;;202.10;;
53439;SDS011;39333;47.044;15.080;2022-09-09T15:23:40;218.82;;;208.20;;
53439;SDS011;39333;47.044;15.080;2022-09-09T15:26:07;214.85;;;204.48;;
53439;SDS011;39333;47.044;15.080;2022-09-09T15:28:35;220.55;;;210.57;;
53439;SDS011;39333;47.044;15.080;2022-09-09T15:31:05;217.60;;;207.32;;
53439;SDS011;39333;47.044;15.080;2022-09-09T15:33:34;219.68;;;209.40;;
53439;SDS011;39333;47.044;15.080;2022-09-09T15:39:10;218.35;;;205.63;;
53439;SDS011;39333;47.044;15.080;2022-09-09T15:41:39;220.82;;;209.70;;
53439;SDS011;39333;47.044;15.080;2022-09-09T15:44:05;215.25;;;205.15;;
53439;SDS011;39333;47.044;15.080;2022-09-09T15:46:36;214.93;;;204.70;;
53439;SDS011;39333;47.044;15.080;2022-09-09T15:49:08;221.93;;;209.75;;
53439;SDS011;39333;47.044;15.080;2022-09-09T15:51:46;220.50;;;209.20;;
53439;SDS011;39333;47.044;15.080;2022-09-09T15:54:17;210.38;;;200.73;;
53439;SDS011;39333;47.044;15.080;2022-09-09T15:56:47;215.60;;;205.35;;
53439;SDS011;39333;47.044;15.080;2022-09-09T15:59:17;222.88;;;211.90;;
53439;SDS011;39333;47.044;15.080;2022-09-09T16:01:44;218.57;;;207.32;;
53439;SDS011;39333;47.044;15.080;2022-09-09T16:04:11;213.82;;;203.10;;
53439;SDS011;39333;47.044;15.080;2022-09-09T16:06:38;212.60;;;202.52;;
53439;SDS011;39333;47.044;15.080;2022-09-09T16:09:05;216.75;;;205.90;;
53439;SDS011;39333;47.044;15.080;2022-09-09T16:11:34;220.30;;;208.93;;
53439;SDS011;39333;47.044;15.080;2022-09-09T16:14:03;220.35;;;209.18;;
53439;SDS011;39333;47.044;15.080;2022-09-09T16:16:31;220.00;;;209.10;;
53439;SDS011;39333;47.044;15.080;2022-09-09T16:18:59;229.10;;;216.52;;
53439;SDS011;39333;47.044;15.080;2022-09-09T16:21:32;213.55;;;202.82;;
53439;SDS011;39333;47.044;15.080;2022-09-09T16:24:02;220.95;;;209.13;;
53439;SDS011;39333;47.044;15.080;2022-09-09T16:26:30;223.85;;;211.77;;
53439;SDS011;39333;47.044;15.080;2022-09-09T16:28:58;220.40;;;208.90;;
53439;SDS011;39333;47.044;15.080;2022-09-09T16:31:27;220.25;;;209.48;;
53439;SDS011;39333;47.044;15.080;2022-09-09T16:33:54;221.93;;;211.20;;
53439;SDS011;39333;47.044;15.080;2022-09-09T16:39:01;225.23;;;212.93;;
53439;SDS011;39333;47.044;15.080;2022-09-09T16:41:31;217.63;;;207.07;;
53439;SDS011;39333;47.044;15.080;2022-09-09T16:44:00;219.75;;;208.77;;
53439;SDS011;39333;47.044;15.080;2022-09-09T16:46:29;222.77;;;211.52;;
53439;SDS011;39333;47.044;15.080;2022-09-09T16:48:58;226.43;;;214.52;;
53439;SDS011;39333;47.044;15.080;2022-09-09T16:51:30;225.65;;;214.60;;